Nueve de Julio, Argentina
Current Conditions -  °F | °C
As of 12:00 PM on Wednesday 26 Nov 2014 (Local Time) from SAEZ Reporting Station
Clear Clear  
Wind Chill: 72°   Ceiling: Unl
Heat Index: 72°   Visibility: 6mi
Dew Point: 54°   Wind: 3mph
Humidity: 53%   Direction: 250°WSW
Pressure: 29.97"   Gusts: NA
Location:  35.45°S, 60.87°W
Report Text: SAEZ 261500Z 25003KT 210V290 CAVOK 22/12 Q1015
Loading
Personal Weather Stations






























Interactive Weather Map New forecast layout! Learn more

10-Day Weather Forecast

Advertisements
Track Severe Weather on mobile